Aviation Digital Data Service (ADDS)

Output produced by TAFs form (0931 UTC 25 November 2017)
found at http://www.aviationweather.gov/adds/tafs/
 
METAR text: RJTI 250700Z 15004KT 9999 FEW030 BKN/// 13/M00 Q1023
Conditions at: RJTI (TOKYO HELIPORT , JP) observed 0700 UTC 25 November 2017
Temperature: 13.0°C (55°F)
Dewpoint: 0.0°C (32°F) [RH = 41%]
Pressure (altimeter): 30.21 inches Hg (1023.0 mb)
Winds: from the SSE (150 degrees) at 5 MPH (4 knots; 2.1 m/s)
Visibility: 6 or more miles (10+ km)
Ceiling: at least 12,000 feet AGL
Clouds: few clouds at 3000 feet AGL
Weather: no significant weather observed at this time